createdAt,value
2023-04-26T00:00:09.569Z,2.20
2023-04-26T00:03:00.392Z,2.70
2023-04-26T00:05:29.901Z,2.80
2023-04-26T00:07:58.959Z,2.40
2023-04-26T00:10:27.342Z,2.40
2023-04-26T00:12:55.733Z,2.70
2023-04-26T00:15:24.000Z,2.20
2023-04-26T00:17:53.355Z,2.40
2023-04-26T00:20:21.911Z,3.00
2023-04-26T00:22:50.172Z,2.80
2023-04-26T00:25:18.659Z,2.40
2023-04-26T00:27:47.013Z,2.50
2023-04-26T00:30:15.838Z,2.80
2023-04-26T00:32:44.244Z,2.40
2023-04-26T00:35:12.883Z,2.30
2023-04-26T00:37:41.869Z,2.40
2023-04-26T00:40:11.387Z,2.10
2023-04-26T00:42:40.214Z,2.10
2023-04-26T00:45:09.069Z,2.00
2023-04-26T00:47:37.439Z,2.40
2023-04-26T00:50:06.653Z,2.50
2023-04-26T00:52:34.876Z,3.10
2023-04-26T00:55:03.205Z,2.70
2023-04-26T00:57:31.963Z,2.80
2023-04-26T01:00:00.420Z,2.80
2023-04-26T01:02:29.525Z,3.00
2023-04-26T01:04:58.021Z,2.80
2023-04-26T01:07:26.257Z,3.00
2023-04-26T01:09:54.952Z,2.20
2023-04-26T01:12:23.383Z,3.20
2023-04-26T01:14:52.131Z,2.60
2023-04-26T01:17:21.101Z,2.50
2023-04-26T01:19:50.325Z,3.30
2023-04-26T01:22:19.064Z,3.90
2023-04-26T01:24:49.184Z,2.80
2023-04-26T01:27:17.928Z,3.00
2023-04-26T01:29:46.528Z,2.70
2023-04-26T01:32:14.905Z,3.00
2023-04-26T01:34:43.419Z,2.90
2023-04-26T01:37:12.584Z,3.00
2023-04-26T01:39:40.978Z,2.90
2023-04-26T01:42:09.350Z,2.90
2023-04-26T01:44:37.646Z,3.00
2023-04-26T01:47:06.394Z,3.20
2023-04-26T01:49:34.914Z,3.40
2023-04-26T01:52:04.192Z,3.60
2023-04-26T01:54:32.562Z,3.80
2023-04-26T01:57:02.852Z,2.80
2023-04-26T01:59:31.317Z,3.60
2023-04-26T02:02:00.933Z,3.70
2023-04-26T02:04:30.250Z,3.30
2023-04-26T02:06:58.669Z,3.90
2023-04-26T02:09:27.043Z,4.00
2023-04-26T02:11:55.312Z,7.10
2023-04-26T02:14:26.408Z,9.40
2023-04-26T02:16:54.870Z,7.80
2023-04-26T02:19:23.090Z,7.60
2023-04-26T02:21:53.009Z,6.10
2023-04-26T02:24:22.534Z,4.70
2023-04-26T02:26:52.147Z,4.10
2023-04-26T02:29:26.917Z,3.60
2023-04-26T02:32:05.474Z,3.80
2023-04-26T02:34:34.028Z,4.40
2023-04-26T02:37:02.694Z,4.40
2023-04-26T02:39:31.772Z,4.70
2023-04-26T02:42:00.505Z,5.10
2023-04-26T02:44:32.218Z,5.00
2023-04-26T02:47:00.674Z,4.20
2023-04-26T02:49:29.815Z,4.40
2023-04-26T02:51:58.140Z,4.70
2023-04-26T02:54:26.605Z,5.00
2023-04-26T02:56:55.559Z,5.50
2023-04-26T02:59:23.781Z,5.40
2023-04-26T03:01:52.217Z,5.30
2023-04-26T03:04:20.862Z,6.20
2023-04-26T03:06:49.040Z,5.20
2023-04-26T03:09:18.147Z,5.20
2023-04-26T03:11:48.992Z,6.50
2023-04-26T03:14:18.855Z,5.10
2023-04-26T03:16:48.872Z,4.50
2023-04-26T03:19:17.255Z,5.00
2023-04-26T03:21:45.973Z,4.30
2023-04-26T03:24:14.279Z,5.20
2023-04-26T03:26:42.725Z,5.00
2023-04-26T03:29:12.740Z,5.10
2023-04-26T03:31:41.126Z,5.40
2023-04-26T03:34:10.084Z,4.80
2023-04-26T03:36:38.812Z,5.80
2023-04-26T03:39:07.700Z,5.40
2023-04-26T03:41:39.654Z,5.30
2023-04-26T03:44:08.673Z,4.60
2023-04-26T03:46:37.164Z,5.20
2023-04-26T03:49:05.506Z,4.90
2023-04-26T03:51:34.130Z,4.30
2023-04-26T03:54:02.581Z,4.60
2023-04-26T03:56:31.002Z,4.30
2023-04-26T03:58:59.443Z,3.70
2023-04-26T04:01:28.838Z,4.10
2023-04-26T04:03:57.469Z,3.80
2023-04-26T04:06:26.204Z,3.40
2023-04-26T04:08:54.896Z,3.90
2023-04-26T04:13:52.685Z,4.80
2023-04-26T04:16:21.038Z,4.10
2023-04-26T04:18:49.659Z,4.60
2023-04-26T04:21:18.224Z,4.70
2023-04-26T04:23:47.217Z,4.70
2023-04-26T04:26:15.620Z,4.80
2023-04-26T04:28:45.824Z,3.80
2023-04-26T04:31:14.393Z,3.90
2023-04-26T04:33:43.607Z,4.20
2023-04-26T04:38:41.444Z,3.80
2023-04-26T04:41:10.710Z,4.50
2023-04-26T04:43:39.188Z,3.30
2023-04-26T04:46:08.857Z,4.40
2023-04-26T04:48:39.134Z,3.90
2023-04-26T04:51:08.408Z,3.90
2023-04-26T04:53:38.016Z,3.80
2023-04-26T04:56:06.608Z,4.40
2023-04-26T04:58:35.192Z,4.60
2023-04-26T05:01:03.656Z,4.00
2023-04-26T05:03:42.577Z,4.30
2023-04-26T05:06:11.389Z,4.30
2023-04-26T05:08:39.641Z,4.00
2023-04-26T05:11:10.127Z,4.10
2023-04-26T05:13:38.577Z,3.80
2023-04-26T05:16:07.637Z,4.10
2023-04-26T05:18:37.056Z,3.60
2023-04-26T05:21:05.866Z,3.30
2023-04-26T05:23:34.837Z,5.40
2023-04-26T05:26:05.207Z,3.60
2023-04-26T05:29:05.867Z,3.40
2023-04-26T05:31:45.907Z,4.10
2023-04-26T05:34:43.620Z,4.10
2023-04-26T05:37:17.958Z,3.80
2023-04-26T05:39:46.339Z,3.40
2023-04-26T05:42:17.495Z,3.60
2023-04-26T05:44:46.778Z,4.00
2023-04-26T05:47:15.131Z,3.20
2023-04-26T05:49:43.419Z,3.80
2023-04-26T05:52:11.729Z,3.70
2023-04-26T05:54:40.074Z,3.60
2023-04-26T05:57:08.317Z,3.60
2023-04-26T05:59:37.325Z,3.60
2023-04-26T06:02:08.663Z,4.00
2023-04-26T06:04:38.285Z,3.80
2023-04-26T06:07:12.828Z,3.90
2023-04-26T06:09:41.311Z,3.60
2023-04-26T06:12:10.322Z,4.30
2023-04-26T06:14:41.242Z,4.40
2023-04-26T06:17:13.059Z,4.30
2023-04-26T06:19:41.899Z,3.90
2023-04-26T06:22:10.061Z,4.30
2023-04-26T06:24:38.346Z,3.90
2023-04-26T06:27:07.323Z,4.40
2023-04-26T06:29:36.417Z,3.40
2023-04-26T06:32:05.266Z,3.80
2023-04-26T06:34:34.474Z,3.70
2023-04-26T06:37:03.100Z,3.80
2023-04-26T06:39:31.634Z,4.60
2023-04-26T06:42:00.280Z,3.40
2023-04-26T06:47:11.569Z,3.90
2023-04-26T06:49:40.081Z,3.40
2023-04-26T06:52:09.413Z,3.50
2023-04-26T06:54:45.907Z,3.60
2023-04-26T06:57:22.409Z,4.00
2023-04-26T06:59:51.572Z,3.80
2023-04-26T07:04:48.746Z,3.50
2023-04-26T07:07:17.443Z,4.10
2023-04-26T07:09:46.526Z,3.30
2023-04-26T07:12:15.125Z,3.20
2023-04-26T07:14:43.797Z,3.40
2023-04-26T07:19:41.626Z,3.20
2023-04-26T07:24:39.181Z,3.60
2023-04-26T07:27:07.730Z,3.30
2023-04-26T07:29:36.060Z,3.10
2023-04-26T07:38:32.300Z,3.60
2023-04-26T07:41:01.606Z,3.40
2023-04-26T07:43:30.634Z,3.80
2023-04-26T07:46:04.998Z,3.40
2023-04-26T07:48:33.594Z,3.60
2023-04-26T07:51:09.236Z,3.60
2023-04-26T07:53:38.550Z,3.90
2023-04-26T07:56:18.952Z,3.00
2023-04-26T07:58:47.390Z,2.50
2023-04-26T08:01:16.878Z,2.00
2023-04-26T08:03:45.861Z,2.80
2023-04-26T08:08:45.818Z,2.40
2023-04-26T08:11:14.343Z,2.50
2023-04-26T08:13:44.286Z,2.70
2023-04-26T08:16:12.889Z,2.50
2023-04-26T08:18:41.848Z,2.60
2023-04-26T08:21:11.503Z,2.80
2023-04-26T08:23:39.879Z,9.40
2023-04-26T08:26:08.156Z,2.90
2023-04-26T08:28:36.492Z,2.90
2023-04-26T08:31:05.277Z,7.50
2023-04-26T08:36:02.361Z,5.10
2023-04-26T08:41:03.786Z,5.10
2023-04-26T08:43:32.343Z,2.70
2023-04-26T08:46:01.180Z,2.60
2023-04-26T08:48:29.594Z,3.20
2023-04-26T08:50:57.878Z,2.10
2023-04-26T08:53:26.263Z,2.20
2023-04-26T08:55:54.589Z,2.20
2023-04-26T08:58:22.923Z,2.50
2023-04-26T09:00:51.312Z,3.00
2023-04-26T09:03:21.500Z,3.10
2023-04-26T09:05:50.201Z,3.50
2023-04-26T09:08:18.530Z,2.90
2023-04-26T09:10:47.009Z,3.80
2023-04-26T09:13:15.451Z,2.80
2023-04-26T09:15:43.798Z,2.60
2023-04-26T09:18:19.715Z,2.90
2023-04-26T09:21:05.450Z,3.00
2023-04-26T09:23:34.361Z,2.60
2023-04-26T09:26:21.922Z,2.90
2023-04-26T09:28:51.064Z,2.90
2023-04-26T09:31:40.037Z,2.90
2023-04-26T09:34:10.101Z,3.10
2023-04-26T09:36:57.304Z,3.20
2023-04-26T09:39:40.170Z,2.60
2023-04-26T09:42:11.896Z,2.90
2023-04-26T09:44:40.764Z,2.90
2023-04-26T09:47:10.521Z,4.70
2023-04-26T09:49:50.897Z,3.70
2023-04-26T09:52:19.553Z,3.80
2023-04-26T09:54:52.260Z,3.80
2023-04-26T09:57:22.508Z,3.00
2023-04-26T09:59:54.355Z,3.50
2023-04-26T10:02:25.339Z,3.10
2023-04-26T10:04:56.132Z,2.90
2023-04-26T10:07:25.581Z,3.10
2023-04-26T10:12:22.164Z,3.40
2023-04-26T10:14:50.990Z,3.60
2023-04-26T10:17:21.040Z,2.90
2023-04-26T10:19:52.167Z,3.10
2023-04-26T10:22:22.575Z,2.70
2023-04-26T10:24:51.900Z,3.00
2023-04-26T10:30:08.283Z,2.70
2023-04-26T10:32:58.446Z,2.70
2023-04-26T10:35:31.191Z,2.50
2023-04-26T10:38:02.321Z,3.20
2023-04-26T10:40:50.765Z,3.30
2023-04-26T10:43:20.028Z,3.30
2023-04-26T10:45:49.139Z,3.60
2023-04-26T10:48:21.350Z,5.30
2023-04-26T10:51:02.579Z,4.20
2023-04-26T10:53:33.022Z,6.10
2023-04-26T10:56:01.547Z,5.00
2023-04-26T10:58:31.847Z,5.00
2023-04-26T11:01:07.531Z,5.90
2023-04-26T11:03:36.165Z,4.20
2023-04-26T11:06:14.208Z,5.20
2023-04-26T11:08:43.520Z,5.10
2023-04-26T11:11:12.455Z,5.10
2023-04-26T11:13:42.389Z,4.40
2023-04-26T11:16:11.917Z,5.50
2023-04-26T11:18:45.117Z,4.90
2023-04-26T11:21:17.931Z,5.50
2023-04-26T11:23:56.465Z,4.70
2023-04-26T11:26:25.174Z,4.90
2023-04-26T11:28:53.704Z,5.40
2023-04-26T11:31:22.650Z,5.80
2023-04-26T11:33:51.244Z,7.80
2023-04-26T11:36:21.017Z,9.10
2023-04-26T11:38:49.392Z,6.70
2023-04-26T11:41:18.034Z,5.50
2023-04-26T11:43:46.374Z,5.10
2023-04-26T11:46:15.109Z,5.30
2023-04-26T11:48:43.558Z,5.20
2023-04-26T11:51:12.136Z,5.60
2023-04-26T11:53:43.593Z,5.10
2023-04-26T11:56:19.236Z,5.10
2023-04-26T11:58:52.595Z,5.60
2023-04-26T12:01:29.010Z,6.00
2023-04-26T12:03:58.661Z,4.40
2023-04-26T12:06:31.045Z,5.30
2023-04-26T12:09:01.723Z,5.60
2023-04-26T12:11:30.067Z,5.40
2023-04-26T12:13:59.881Z,4.60
2023-04-26T12:16:28.370Z,4.60
2023-04-26T12:18:57.275Z,5.20
2023-04-26T12:21:28.173Z,4.90
2023-04-26T12:23:58.666Z,4.80
2023-04-26T12:26:45.316Z,4.90
2023-04-26T12:29:13.669Z,4.60
2023-04-26T12:31:42.156Z,5.60
2023-04-26T12:34:11.047Z,4.90
2023-04-26T12:36:41.649Z,4.70
2023-04-26T12:39:13.913Z,5.80
2023-04-26T12:41:42.704Z,7.80
2023-04-26T12:44:11.493Z,6.90
2023-04-26T12:46:40.047Z,8.40
2023-04-26T12:49:08.761Z,11.20
2023-04-26T12:51:37.359Z,12.90
2023-04-26T12:54:05.975Z,10.70
2023-04-26T12:56:34.329Z,12.20
2023-04-26T12:59:02.841Z,8.80
2023-04-26T13:01:32.161Z,8.70
2023-04-26T13:06:29.767Z,4.70
2023-04-26T13:08:58.141Z,7.50
2023-04-26T13:11:26.599Z,6.70
2023-04-26T13:13:54.925Z,6.30
2023-04-26T13:16:23.572Z,7.90
2023-04-26T13:18:52.044Z,5.70
2023-04-26T13:21:20.476Z,5.50
2023-04-26T13:23:48.864Z,6.50
2023-04-26T13:26:18.475Z,5.40
2023-04-26T13:28:47.843Z,5.30
2023-04-26T13:31:17.710Z,4.60
2023-04-26T13:33:49.301Z,4.70
2023-04-26T13:36:17.713Z,5.40
2023-04-26T13:38:46.484Z,7.90
2023-04-26T13:41:15.428Z,9.40
2023-04-26T13:43:43.696Z,5.10
2023-04-26T13:46:12.267Z,6.20
2023-04-26T13:48:41.254Z,6.20
2023-04-26T13:51:09.695Z,5.20
2023-04-26T13:53:38.221Z,5.80
2023-04-26T13:56:07.313Z,5.60
2023-04-26T13:58:36.167Z,5.30
2023-04-26T14:01:04.668Z,5.10
2023-04-26T14:03:33.854Z,5.80
2023-04-26T14:06:03.903Z,4.40
2023-04-26T14:08:32.548Z,4.60
2023-04-26T14:11:01.044Z,4.10
2023-04-26T14:13:29.435Z,4.30
2023-04-26T14:15:57.805Z,4.30
2023-04-26T14:18:26.525Z,5.90
2023-04-26T14:20:54.981Z,5.00
2023-04-26T14:23:23.438Z,3.20
2023-04-26T14:25:52.733Z,4.30
2023-04-26T14:30:49.706Z,3.70
2023-04-26T14:33:18.072Z,5.00
2023-04-26T14:35:46.590Z,4.70
2023-04-26T14:38:15.063Z,4.80
2023-04-26T14:40:45.386Z,4.10
2023-04-26T14:43:13.866Z,5.10
2023-04-26T14:45:45.338Z,4.20
2023-04-26T14:48:13.819Z,3.20
2023-04-26T14:50:42.608Z,4.10
2023-04-26T14:53:11.355Z,3.10
2023-04-26T14:55:39.635Z,3.00
2023-04-26T14:58:08.238Z,3.00
2023-04-26T15:00:36.904Z,3.00
2023-04-26T15:03:05.636Z,3.20
2023-04-26T15:05:34.286Z,3.80
2023-04-26T15:08:02.895Z,3.30
2023-04-26T15:10:31.354Z,3.60
2023-04-26T15:12:59.831Z,4.20
2023-04-26T15:15:28.446Z,5.30
2023-04-26T15:17:56.836Z,4.80
2023-04-26T15:20:25.674Z,6.10
2023-04-26T15:22:54.164Z,4.90
2023-04-26T15:25:22.581Z,6.20
2023-04-26T15:27:51.116Z,7.30
2023-04-26T15:30:19.547Z,5.70
2023-04-26T15:32:49.492Z,4.30
2023-04-26T15:35:18.169Z,5.70
2023-04-26T15:37:46.560Z,11.20
2023-04-26T15:40:15.095Z,11.30
2023-04-26T15:42:43.541Z,6.50
2023-04-26T15:45:12.239Z,6.20
2023-04-26T15:47:40.764Z,7.80
2023-04-26T15:50:10.022Z,12.30
2023-04-26T15:52:39.445Z,9.30
2023-04-26T15:55:08.347Z,6.00
2023-04-26T15:57:36.939Z,9.00
2023-04-26T16:00:08.752Z,9.40
2023-04-26T16:02:37.515Z,7.40
2023-04-26T16:05:08.538Z,7.10
2023-04-26T16:07:39.031Z,6.10
2023-04-26T16:10:09.348Z,5.60
2023-04-26T16:12:39.807Z,6.00
2023-04-26T16:15:09.710Z,6.20
2023-04-26T16:17:38.446Z,4.80
2023-04-26T16:20:08.355Z,5.00
2023-04-26T16:22:36.845Z,6.00
2023-04-26T16:25:07.177Z,8.00
2023-04-26T16:27:35.877Z,14.50
2023-04-26T16:30:04.668Z,24.00
2023-04-26T16:32:33.333Z,33.10
2023-04-26T16:35:01.840Z,21.90
2023-04-26T16:37:30.943Z,20.00
2023-04-26T16:40:00.432Z,12.50
2023-04-26T16:42:30.251Z,14.40
2023-04-26T16:44:58.734Z,12.60
2023-04-26T16:47:27.464Z,11.60
2023-04-26T16:49:55.892Z,7.50
2023-04-26T16:52:24.372Z,11.90
2023-04-26T16:54:52.858Z,10.20
2023-04-26T16:57:21.236Z,13.90
2023-04-26T16:59:49.931Z,13.50
2023-04-26T17:02:18.788Z,19.60
2023-04-26T17:04:49.176Z,24.20
2023-04-26T17:07:17.892Z,18.20
2023-04-26T17:09:46.321Z,10.60
2023-04-26T17:12:14.709Z,13.30
2023-04-26T17:14:43.054Z,6.60
2023-04-26T17:17:11.950Z,6.90
2023-04-26T17:19:40.532Z,3.90
2023-04-26T17:22:09.009Z,7.90
2023-04-26T17:24:37.300Z,7.20
2023-04-26T17:27:05.666Z,5.30
2023-04-26T17:29:34.359Z,8.70
2023-04-26T17:32:02.656Z,10.30
2023-04-26T17:34:31.106Z,6.10
2023-04-26T17:36:59.382Z,6.50
2023-04-26T17:39:27.699Z,4.80
2023-04-26T17:41:56.250Z,4.50
2023-04-26T17:44:24.628Z,4.80
2023-04-26T17:46:52.957Z,3.40
2023-04-26T17:49:22.656Z,3.50
2023-04-26T17:51:51.712Z,4.30
2023-04-26T17:54:20.097Z,4.60
2023-04-26T17:56:48.584Z,4.00
2023-04-26T17:59:17.227Z,4.40
2023-04-26T18:01:45.815Z,4.40
2023-04-26T18:04:14.345Z,3.30
2023-04-26T18:06:44.188Z,2.30
2023-04-26T18:11:42.120Z,2.70
2023-04-26T18:14:10.528Z,2.80
2023-04-26T18:16:38.874Z,3.50
2023-04-26T18:19:07.775Z,2.50
2023-04-26T18:21:36.061Z,3.30
2023-04-26T18:24:04.950Z,2.60
2023-04-26T18:26:33.435Z,2.30
2023-04-26T18:29:01.730Z,2.80
2023-04-26T18:31:32.475Z,3.00
2023-04-26T18:34:01.595Z,3.50
2023-04-26T18:36:30.307Z,2.50
2023-04-26T18:39:00.755Z,2.80
2023-04-26T18:41:29.628Z,2.60
2023-04-26T18:43:58.002Z,2.40
2023-04-26T18:46:26.831Z,2.40
2023-04-26T18:48:55.285Z,1.70
2023-04-26T18:51:23.561Z,1.90
2023-04-26T18:53:51.962Z,2.70
2023-04-26T18:58:50.047Z,2.00
2023-04-26T19:01:18.411Z,2.00
2023-04-26T19:03:47.080Z,2.40
2023-04-26T19:06:15.566Z,2.50
2023-04-26T19:08:44.455Z,3.50
2023-04-26T19:11:16.046Z,1.70
2023-04-26T19:13:44.603Z,2.60
2023-04-26T19:16:20.478Z,1.70
2023-04-26T19:18:50.093Z,1.90
2023-04-26T19:21:18.449Z,3.50
2023-04-26T19:23:46.866Z,1.90
2023-04-26T19:26:18.422Z,1.90
2023-04-26T19:28:49.635Z,2.00
2023-04-26T19:31:17.921Z,1.80
2023-04-26T19:33:46.307Z,2.20
2023-04-26T19:36:14.585Z,2.40
2023-04-26T19:38:43.031Z,1.70
2023-04-26T19:41:11.410Z,2.10
2023-04-26T19:43:39.809Z,1.80
2023-04-26T19:46:15.674Z,1.80
2023-04-26T19:48:44.389Z,1.20
2023-04-26T19:51:19.116Z,1.30
2023-04-26T19:53:47.550Z,2.10
2023-04-26T19:56:15.990Z,1.70
2023-04-26T19:58:44.892Z,1.70
2023-04-26T20:01:13.250Z,1.40
2023-04-26T20:03:41.599Z,1.30
2023-04-26T20:06:11.878Z,1.60
2023-04-26T20:08:41.283Z,1.60
2023-04-26T20:11:15.039Z,1.50
2023-04-26T20:13:44.198Z,1.70
2023-04-26T20:16:13.514Z,1.40
2023-04-26T20:18:42.192Z,1.30
2023-04-26T20:21:10.676Z,1.30
2023-04-26T20:23:39.158Z,1.40
2023-04-26T20:26:07.545Z,1.60
2023-04-26T20:28:35.983Z,1.60
2023-04-26T20:31:04.659Z,1.30
2023-04-26T20:33:32.944Z,1.40
2023-04-26T20:36:01.577Z,1.30
2023-04-26T20:38:29.966Z,1.30
2023-04-26T20:40:58.323Z,1.20
2023-04-26T20:43:26.689Z,1.30
2023-04-26T20:45:55.026Z,1.70
2023-04-26T20:48:24.324Z,1.50
2023-04-26T20:50:55.987Z,2.10
2023-04-26T20:53:24.776Z,1.40
2023-04-26T20:55:53.932Z,1.60
2023-04-26T20:58:22.406Z,1.10
2023-04-26T21:00:52.034Z,1.90
2023-04-26T21:03:20.716Z,1.40
2023-04-26T21:05:49.205Z,1.20
2023-04-26T21:08:17.915Z,1.40
2023-04-26T21:10:46.648Z,1.30
2023-04-26T21:13:15.031Z,1.50
2023-04-26T21:15:43.290Z,1.10
2023-04-26T21:18:11.626Z,1.30
2023-04-26T21:20:39.965Z,1.60
2023-04-26T21:23:08.453Z,1.40
2023-04-26T21:25:37.040Z,1.10
2023-04-26T21:28:05.219Z,1.00
2023-04-26T21:30:33.603Z,1.70
2023-04-26T21:33:02.417Z,1.50
2023-04-26T21:35:30.854Z,0.60
2023-04-26T21:37:59.577Z,0.70
2023-04-26T21:40:28.010Z,0.60
2023-04-26T21:43:04.850Z,1.10
2023-04-26T21:45:34.185Z,0.90
2023-04-26T21:48:02.593Z,0.80
2023-04-26T21:50:30.954Z,0.80
2023-04-26T21:52:59.391Z,0.70
2023-04-26T21:55:27.677Z,0.60
2023-04-26T21:57:56.112Z,0.80
2023-04-26T22:00:24.642Z,0.90
2023-04-26T22:02:53.335Z,0.90
2023-04-26T22:05:22.668Z,0.90
2023-04-26T22:07:51.338Z,0.60
2023-04-26T22:10:19.725Z,1.40
2023-04-26T22:12:48.093Z,0.90
2023-04-26T22:15:16.471Z,1.70
2023-04-26T22:17:44.929Z,2.60
2023-04-26T22:20:13.553Z,2.00
2023-04-26T22:22:41.958Z,2.10
2023-04-26T22:25:10.709Z,1.90
2023-04-26T22:27:39.018Z,2.50
2023-04-26T22:30:23.121Z,1.20
2023-04-26T22:32:54.964Z,1.20
2023-04-26T22:35:24.359Z,0.80
2023-04-26T22:37:52.661Z,1.20
2023-04-26T22:40:21.053Z,0.80
2023-04-26T22:42:49.547Z,0.80
2023-04-26T22:45:17.920Z,0.60
2023-04-26T22:47:46.422Z,1.30
2023-04-26T22:50:15.186Z,0.90
2023-04-26T22:52:43.891Z,0.70
2023-04-26T22:55:12.258Z,0.60
2023-04-26T22:57:40.541Z,0.70
2023-04-26T23:00:10.367Z,1.10
2023-04-26T23:02:38.610Z,0.80
2023-04-26T23:05:10.315Z,0.90
2023-04-26T23:07:39.544Z,0.60
2023-04-26T23:10:08.513Z,0.70
2023-04-26T23:12:36.963Z,0.90
2023-04-26T23:15:06.389Z,0.60
2023-04-26T23:17:34.931Z,0.80
2023-04-26T23:20:12.357Z,0.70
2023-04-26T23:22:41.829Z,0.90
2023-04-26T23:25:10.488Z,1.20
2023-04-26T23:27:38.912Z,1.20
2023-04-26T23:30:08.323Z,1.20
2023-04-26T23:32:36.747Z,0.80
2023-04-26T23:35:05.974Z,1.30
2023-04-26T23:37:34.207Z,1.10
2023-04-26T23:40:02.635Z,1.30
2023-04-26T23:42:31.207Z,0.90
2023-04-26T23:44:59.746Z,1.30
2023-04-26T23:47:28.197Z,1.10
2023-04-26T23:49:56.761Z,0.90
2023-04-26T23:52:25.244Z,1.00
2023-04-26T23:54:53.658Z,1.00
2023-04-26T23:57:22.016Z,1.30
2023-04-26T23:59:50.270Z,1.40
